Mayport Ns (Adm David L. Mcdonald Field) Airport Mayport US
ICAO: KNRB
IATA: NRB
Category: Medium
Scheduled Services: No

Elevation: 15 ft
TransAlt. 18000 ft.

Airport Communications:
JACKSONVILLE APP/DEP:124.9
ATIS:26.86
GND:126.5
PTD:30.85
TWR:118.75

KNRB Zoom In..

If you have problems with the map follow the link
https://www.worldairports.se/pages/airport.php?
ICAO=KNRB

Runways:

(A) RW 05 length 8001 ft width 200 ft
---- / hdg 46

(B) RW 23 length 8001 ft width 200 ft
---- / hdg 226

Location; KNRB
Day. 14 / Time. 04.43 Zulu
* Altimeter: 29.76
* Temperature: 17° c. 62.6°f.
* Wind from: 150° Speed 05 kn.
Dewpoint: 17° c.
Visibility: 1/4 Statute Miles.
Conditions: Light Rain.Conditions: Fog.

KNRB 140443Z AUTO 15005KT 1/4SM -RA FG VV003 17/17 A2976 RMK AO2 RAB11 P0001 T01670167


Wind From 150°
Speed 05 kn.

 
 
jpsmedia worldairports.se 2019   terms of use